Chelyuskin, Russia
Current Conditions -  °F | °C
As of 6:50 AM on Thursday 23 Oct 2014 (Local Time) from ENSB Reporting Station
Few Clouds Few Clouds  
Wind Chill: 22°   Ceiling: Unl
Heat Index: 32°   Visibility: 6mi
Dew Point: 25°   Wind: 14mph
Humidity: 75%   Direction: 110°ESE
Pressure: 29.74"   Gusts: NA
Location:  77.3°N, 103°E
Report Text: ENSB 222350Z 11012KT 9999 FEW039 00/M04 Q1007 RMK WIND 1400FT 09012KT
Loading
Personal Weather Stations






























Interactive Weather Map
Tropical Storm Tracking
New forecast layout! Learn more

10-Day Weather Forecast

Advertisements
Track Severe Weather on mobile